Granite Bay, California
Current Conditions -  °F | °C
As of 10:52 AM on Thursday 30 Oct 2014 (Local Time) from KMHR Reporting Station
Broken Clouds Broken Clouds  
Wind Chill: 72°   Ceiling: 14000
Heat Index: 72°   Visibility: 10mi
Dew Point: 45°   Wind: 6mph
Humidity: 38%   Direction: 200°SSW
Pressure: 29.95"   Gusts: NA
Location:  38.74°N, 121.18°W
Report Text: KMHR 301752Z 20005KT 10SM BKN140 22/07 A2995
Loading
Personal Weather Stations






























Interactive Weather Map
Tropical Storm Tracking
New forecast layout! Learn more

10-Day Weather Forecast

Advertisements
Track Severe Weather on mobile